Latest Weather Observations for Kalumburu

IDD60801

Issued at 5:21 pm CST Friday 3 December 2021 (issued every 10 minutes, with the page automatically refreshed every 10 minutes)

About weather observations | Map of weather stations | Latest weather observations for NT | Other Formats
Station Details ID: 001019 Name: KALUMBURU Lat: -14.30 Lon: 126.65 Height: 23.0 m
Data from the previous 72 hours. | See also: Recent months at Kalumburu
Date/Time
CST
Temp
°C
App
Temp
°C
Dew
Point
°C
Rel
Hum
%
Delta-T
°C
Wind Press
QNH
hPa
Press
MSL
hPa
Rain since
9am
mm
Dir  Spd
km/h
Gust
km/h
Spd
kts
Gust
kts
03/05:00pm 38.4 38.0 18.8 32 13.0 N 19 28 10 15 1004.5 1004.3 0.0
03/04:30pm 39.1 38.4 18.3 29 13.8 N 19 30 10 16 1004.3 1004.1 0.0
03/04:00pm 39.1 38.9 19.4 31 13.2 NNW 19 26 10 14 1004.5 1004.3 0.0
03/03:30pm 40.2 41.2 21.8 34 12.7 NNW 19 30 10 16 1004.6 1004.4 0.0
03/03:00pm 39.9 40.6 21.5 34 12.7 NNW 20 32 11 17 1004.9 1004.7 0.0
03/02:30pm 39.0 39.7 21.6 36 12.0 NNW 20 30 11 16 1005.3 1005.1 0.0
03/02:00pm 39.7 40.6 20.9 33 12.8 NNW 17 24 9 13 1005.6 1005.4 0.0
03/01:30pm 39.9 42.3 20.1 32 13.4 NW 7 20 4 11 1006.0 1005.8 0.0
03/01:00pm 39.4 41.6 17.5 27 14.3 NW 2 13 1 7 1006.5 1006.3 0.0
03/12:30pm 39.4 43.2 20.1 32 13.1 CALM 0 11 0 6 1006.9 1006.7 0.0
03/12:00pm 38.3 41.3 19.2 32 12.7 SSE 2 15 1 8 1007.5 1007.3 0.0
03/11:30am 37.3 40.5 20.6 37 11.3 S 4 15 2 8 1008.0 1007.8 0.0
03/11:00am 36.0 38.0 20.7 41 10.3 SSW 11 19 6 10 1008.5 1008.3 0.0
03/10:30am 34.6 37.0 21.6 46 8.9 S 11 17 6 9 1008.8 1008.6 0.0
03/10:00am 32.9 35.4 21.1 50 7.9 SSW 9 17 5 9 1008.9 1008.7 0.0
03/09:30am 32.1 34.9 21.6 53 7.1 SSW 9 13 5 7 1009.1 1008.9 0.0
03/09:00am 31.8 36.5 23.9 63 5.5 S 6 9 3 5 1009.0 1008.8 0.0
03/08:30am 30.6 34.9 23.3 65 5.0 SSW 6 9 3 5 1008.9 1008.7 0.0
03/08:00am 29.6 35.6 24.9 76 3.3 WSW 2 7 1 4 1008.7 1008.5 0.0
03/07:30am 28.4 35.6 26.2 88 1.6 CALM 0 0 0 0 1008.4 1008.2 0.0
03/07:00am 27.8 34.9 26.0 90 1.3 CALM 0 0 0 0 1008.2 1008.0 0.0
03/06:30am 27.4 34.1 25.4 89 1.4 CALM 0 0 0 0 1007.7 1007.5 0.0
03/06:00am 27.4 34.2 25.6 90 1.3 CALM 0 0 0 0 1007.4 1007.2 0.0
03/05:30am 27.9 33.5 25.5 87 1.7 WNW 6 7 3 4 1007.1 1006.9 0.0
03/05:00am 28.0 34.3 25.4 86 1.8 WNW 2 6 1 3 1007.0 1006.8 0.0
03/04:30am 28.0 34.7 25.4 86 1.8 CALM 0 0 0 0 1007.0 1006.8 0.0
03/04:00am 28.1 34.6 25.7 87 1.7 WNW 2 6 1 3 1006.7 1006.5 0.0
03/03:30am 28.4 35.1 25.4 84 2.1 CALM 0 0 0 0 1006.7 1006.5 0.0
03/03:00am 28.7 35.5 25.5 83 2.3 CALM 0 6 0 3 1006.9 1006.7 0.0
03/02:30am 28.6 35.4 25.6 84 2.1 CALM 0 0 0 0 1007.3 1007.1 0.0
03/02:00am 29.0 35.8 25.6 82 2.4 CALM 0 0 0 0 1007.3 1007.1 0.0
03/01:30am 29.3 35.9 25.3 79 2.8 CALM 0 0 0 0 1007.6 1007.4 0.0
03/01:00am 29.5 35.9 25.5 79 2.8 NW 2 7 1 4 1007.8 1007.6 0.0
03/12:30am 29.9 35.4 25.6 78 3.0 NW 7 9 4 5 1008.0 1007.8 0.0
03/12:00am 30.0 35.6 25.5 77 3.2 WNW 6 9 3 5 1008.4 1008.2 0.0
 
Date/Time
CST
Temp
°C
App
Temp
°C
Dew
Point
°C
Rel
Hum
%
Delta-T
°C
Wind Press
QNH
hPa
Press
MSL
hPa
Rain since
9am
mm
Dir  Spd
km/h
Gust
km/h
Spd
kts
Gust
kts
02/11:30pm 30.2 37.0 25.5 76 3.3 CALM 0 0 0 0 1008.6 1008.4 0.0
02/11:00pm 30.5 36.0 25.6 75 3.5 WNW 7 15 4 8 1008.5 1008.3 0.0
02/10:30pm 30.5 35.6 25.6 75 3.5 WNW 9 15 5 8 1008.4 1008.2 0.0
02/10:00pm 30.7 35.6 25.3 73 3.8 W 9 17 5 9 1008.2 1008.0 0.0
02/09:30pm 30.9 36.3 25.5 73 3.8 WNW 7 11 4 6 1008.2 1008.0 0.0
02/09:00pm 31.1 36.1 25.4 71 4.0 WNW 9 13 5 7 1008.0 1007.8 0.0
02/08:30pm 31.2 36.6 26.0 74 3.7 NW 9 13 5 7 1007.8 1007.6 0.0
02/08:00pm 31.4 36.0 26.0 73 3.9 NW 13 22 7 12 1007.4 1007.2 0.0
02/07:30pm 31.8 36.7 25.9 71 4.2 NW 11 17 6 9 1007.2 1007.0 0.0
02/07:00pm 32.5 35.9 25.3 66 5.1 NNW 17 24 9 13 1006.7 1006.5 0.0
02/06:30pm 33.4 36.5 24.8 60 6.1 NNW 17 26 9 14 1005.9 1005.7 0.0
02/06:00pm 35.1 37.8 24.1 53 7.7 NNW 17 28 9 15 1005.5 1005.3 0.0
02/05:30pm 35.5 37.8 23.5 50 8.4 WNW 17 32 9 17 1004.9 1004.7 0.0
02/05:00pm 36.2 39.6 24.1 49 8.5 NW 13 24 7 13 1004.7 1004.5 0.0
02/04:30pm 35.8 38.2 23.7 49 8.5 NW 17 28 9 15 1004.7 1004.5 0.0
02/04:00pm 37.8 39.7 23.4 43 10.1 NW 19 35 10 19 1004.8 1004.6 0.0
02/03:30pm 38.6 40.1 21.3 36 11.9 NW 15 28 8 15 1005.0 1004.8 0.0
02/03:00pm 41.0 40.8 13.6 20 17.1 SE 7 15 4 8 1005.1 1004.9 0.0
02/02:30pm 40.7 40.2 14.8 22 16.4 WSW 11 24 6 13 1005.4 1005.2 0.0
02/02:00pm 40.9 40.6 14.3 21 16.7 WSW 9 22 5 12 1006.0 1005.8 0.0
02/01:30pm 40.1 40.3 15.7 24 15.6 W 9 17 5 9 1006.5 1006.3 0.0
02/01:00pm 39.4 39.2 15.7 24 15.1 SW 11 24 6 13 1007.0 1006.8 0.0
02/12:30pm 38.8 38.5 16.4 26 14.4 SSW 13 24 7 13 1007.6 1007.4 0.0
02/12:00pm 37.7 38.3 18.7 33 12.6 S 13 22 7 12 1007.8 1007.6 0.0
02/11:30am 36.3 36.8 19.3 37 11.3 SSW 15 26 8 14 1008.2 1008.0 0.0
02/11:00am 35.4 36.7 20.9 42 9.8 S 15 20 8 11 1008.4 1008.2 0.0
02/10:30am 34.9 37.3 21.6 46 9.1 SSW 11 20 6 11 1008.9 1008.7 0.0
02/10:00am 33.5 36.5 22.6 53 7.5 SSW 11 20 6 11 1009.2 1009.0 0.0
02/09:30am 32.6 36.8 24.1 61 5.9 SSW 9 13 5 7 1009.5 1009.3 0.0
02/09:00am 31.7 35.7 23.8 63 5.5 SSW 9 15 5 8 1009.4 1009.2 0.0
02/08:30am 30.7 34.9 24.8 71 4.1 SSW 11 15 6 8 1009.3 1009.1 0.0
02/08:00am 30.3 35.5 25.1 73 3.7 SSW 7 11 4 6 1009.1 1008.9 0.0
02/07:30am 29.1 35.2 25.1 79 2.8 SSW 2 7 1 4 1009.0 1008.8 0.0
02/07:00am 28.2 33.9 25.0 83 2.2 SSW 4 11 2 6 1008.6 1008.4 0.0
02/06:30am 27.3 33.2 24.7 86 1.8 SW 2 7 1 4 1008.2 1008.0 0.0
02/06:00am 27.0 33.6 25.2 90 1.3 CALM 0 0 0 0 1008.0 1007.8 0.0
02/05:30am 27.0 33.6 25.2 90 1.3 CALM 0 0 0 0 1007.7 1007.5 0.0
02/05:00am 27.3 33.8 25.1 88 1.5 CALM 0 0 0 0 1007.4 1007.2 0.0
02/04:30am 27.7 34.3 25.3 87 1.7 CALM 0 0 0 0 1007.3 1007.1 0.0
02/04:00am 27.9 34.7 25.5 87 1.7 CALM 0 0 0 0 1007.0 1006.8 0.0
02/03:30am 28.6 35.2 25.2 82 2.4 CALM 0 0 0 0 1007.0 1006.8 0.0
02/03:00am 28.8 35.1 25.4 82 2.4 WNW 2 7 1 4 1007.1 1006.9 0.0
02/02:30am 28.8 35.5 25.4 82 2.4 CALM 0 0 0 0 1007.2 1007.0 0.0
02/02:00am 29.2 35.1 25.4 80 2.7 WNW 4 7 2 4 1007.3 1007.1 0.0
02/01:30am 29.2 35.5 25.4 80 2.7 NW 2 7 1 4 1007.7 1007.5 0.0
02/01:00am 29.5 35.1 25.5 79 2.8 WNW 6 11 3 6 1008.0 1007.8 0.0
02/12:30am 29.5 35.1 25.5 79 2.8 WNW 6 9 3 5 1008.5 1008.3 0.0
02/12:00am 29.9 35.6 25.6 78 3.0 WNW 6 11 3 6 1008.6 1008.4 0.0
 
Date/Time
CST
Temp
°C
App
Temp
°C
Dew
Point
°C
Rel
Hum
%
Delta-T
°C
Wind Press
QNH
hPa
Press
MSL
hPa
Rain since
9am
mm
Dir  Spd
km/h
Gust
km/h
Spd
kts
Gust
kts
01/11:30pm 29.8 36.8 25.8 79 2.8 CALM 0 0 0 0 1008.7 1008.5 0.0
01/11:00pm 30.1 35.6 25.6 77 3.2 WNW 7 17 4 9 1008.8 1008.6 0.0
01/10:30pm 30.2 35.7 25.3 75 3.5 WNW 6 13 3 7 1008.7 1008.5 0.0
01/10:00pm 30.0 36.8 25.5 77 3.2 CALM 0 0 0 0 1008.6 1008.4 0.0
01/09:30pm 30.7 36.5 25.8 75 3.5 NNW 6 9 3 5 1008.3 1008.1 0.0
01/09:00pm 30.9 36.0 25.5 73 3.8 NW 9 15 5 8 1008.0 1007.8 0.0
01/08:30pm 31.3 36.2 25.2 70 4.3 NW 9 13 5 7 1007.6 1007.4 0.0
01/08:00pm 31.9 35.6 24.5 65 5.2 WNW 13 20 7 11 1007.1 1006.9 0.0
01/07:30pm 32.2 35.4 24.3 63 5.5 NW 15 26 8 14 1006.5 1006.3 0.0
01/07:00pm 33.4 35.7 22.8 53 7.3 NNW 15 24 8 13 1006.2 1006.0 0.0
01/06:30pm 34.4 36.3 22.1 48 8.4 NNW 15 20 8 11 1005.5 1005.3 0.0
01/06:00pm 35.1 38.0 23.8 52 7.9 NW 15 24 8 13 1004.7 1004.5 0.0
01/05:30pm 34.9 37.1 23.2 50 8.1 NW 17 28 9 15 1004.5 1004.3 0.0
01/05:00pm 36.1 37.9 22.6 45 9.3 NW 17 30 9 16 1004.3 1004.1 0.0
01/04:30pm 35.1 36.8 23.1 49 8.4 WNW 19 30 10 16 1004.1 1003.9 0.0
01/04:00pm 37.2 38.2 21.7 40 10.6 NW 19 32 10 17 1004.0 1003.8 0.0
01/03:30pm 39.3 39.3 19.0 30 13.6 WNW 17 26 9 14 1004.3 1004.1 0.0
01/03:00pm 39.0 39.6 17.7 28 13.9 NW 11 20 6 11 1004.6 1004.4 0.0
01/02:30pm 41.1 40.2 13.7 20 17.2 WSW 11 15 6 8 1005.0 1004.8 0.0
01/02:00pm 40.0 38.9 12.0 19 17.0 NW 9 17 5 9 1005.5 1005.3 0.0
01/01:30pm 39.4 38.4 12.3 20 16.5 SW 9 19 5 10 1006.3 1006.1 0.0
01/01:00pm 38.9 38.9 15.3 25 15.0 SSW 9 17 5 9 1006.9 1006.7 0.0
01/12:30pm 38.4 38.3 16.1 27 14.3 S 11 17 6 9 1007.4 1007.2 0.0
01/12:00pm 37.6 38.3 16.0 28 13.8 WNW 7 20 4 11 1007.8 1007.6 0.0
01/11:30am 37.4 39.0 17.9 31 12.8 WSW 6 11 3 6 1008.2 1008.0 0.0
01/11:00am 36.4 37.5 18.0 33 12.0 WSW 9 15 5 8 1008.5 1008.3 0.0
01/10:30am 35.3 36.6 19.2 38 10.7 S 11 15 6 8 1008.8 1008.6 7.8
01/10:00am 34.1 35.8 20.1 43 9.3 S 11 20 6 11 1008.7 1008.5 7.8
01/09:30am 32.6 35.8 22.4 55 7.0 S 9 13 5 7 1009.0 1008.8 7.8
01/09:00am 31.4 35.0 22.4 59 6.1 SSE 7 11 4 6 1008.9 1008.7 7.8
01/08:30am 30.4 35.1 22.6 63 5.3 S 2 7 1 4 1008.6 1008.4 7.8
01/08:00am 29.5 33.2 22.2 65 4.9 S 6 7 3 4 1008.5 1008.3 7.8
01/07:30am 27.4 33.3 24.1 82 2.3 CALM 0 0 0 0 1008.1 1007.9 7.8
01/07:00am 25.3 30.9 23.5 90 1.2 CALM 0 0 0 0 1007.7 1007.5 7.8
01/06:30am 24.9 30.2 23.1 90 1.2 CALM 0 0 0 0 1007.3 1007.1 7.8
01/06:00am 25.2 30.8 23.6 91 1.1 CALM 0 0 0 0 1006.9 1006.7 7.8
01/05:30am 25.3 30.9 23.5 90 1.2 CALM 0 0 0 0 1006.4 1006.2 7.8
01/05:00am 25.8 31.8 24.2 91 1.1 CALM 0 0 0 0 1006.1 1005.9 7.8
01/04:30am 26.2 32.5 24.8 92 1.0 CALM 0 0 0 0 1006.0 1005.8 7.8
01/04:00am 26.4 32.9 25.0 92 1.0 CALM 0 0 0 0 1006.0 1005.8 7.8
01/03:30am 26.5 33.0 25.1 92 1.0 CALM 0 0 0 0 1006.1 1005.9 7.8
01/03:00am 26.5 32.6 24.5 89 1.4 CALM 0 0 0 0 1006.2 1006.0 7.8
01/02:30am 26.6 32.9 24.8 90 1.3 CALM 0 0 0 0 1006.3 1006.1 7.8
01/02:00am 26.5 32.5 24.3 88 1.5 CALM 0 0 0 0 1006.6 1006.4 7.8
01/01:30am 26.6 32.8 24.6 89 1.4 CALM 0 0 0 0 1006.9 1006.7 7.8
01/01:00am 26.9 33.0 24.5 87 1.7 CALM 0 0 0 0 1007.2 1007.0 7.8
01/12:30am 27.2 33.5 24.8 87 1.7 CALM 0 0 0 0 1007.6 1007.4 7.8
01/12:00am 27.4 33.7 24.7 85 1.9 CALM 0 0 0 0 1007.9 1007.7 7.8
 
Date/Time
CST
Temp
°C
App
Temp
°C
Dew
Point
°C
Rel
Hum
%
Delta-T
°C
Wind Press
QNH
hPa
Press
MSL
hPa
Rain since
9am
mm
Dir  Spd
km/h
Gust
km/h
Spd
kts
Gust
kts
30/11:30pm 27.5 33.9 24.9 86 1.8 CALM 0 0 0 0 1008.2 1008.0 7.8
30/11:00pm 27.5 33.9 24.9 86 1.8 CALM 0 0 0 0 1008.1 1007.9 7.8
30/10:30pm 27.3 32.0 24.0 82 2.3 E 6 7 3 4 1008.2 1008.0 7.8
30/10:00pm 27.4 32.3 23.6 80 2.6 ENE 4 7 2 4 1007.9 1007.7 7.8
30/09:30pm 27.0 32.3 23.7 82 2.3 NE 2 7 1 4 1007.7 1007.5 7.8
30/09:00pm 27.2 32.6 23.2 79 2.7 CALM 0 4 0 2 1007.4 1007.2 7.8
30/08:30pm 26.9 31.9 22.5 77 3.0 CALM 0 0 0 0 1006.7 1006.5 7.8
30/08:00pm 28.0 29.8 20.3 63 5.1 WNW 11 24 6 13 1006.5 1006.3 7.8
30/07:56pm 28.2 29.2 20.2 62 5.3 WNW 15 30 8 16 1006.6 1006.4 7.8
30/07:30pm 27.2 27.7 21.2 69 4.0 NW 20 37 11 20 1006.0 1005.8 7.8
30/07:00pm 28.4 26.7 21.4 66 4.7 N 32 52 17 28 1005.4 1005.2 6.6

Other formats

Comma delimited format used in spreadsheet applications
http://www.bom.gov.au/fwo/IDD60801/IDD60801.94100.axf

JavaScript Object Notation format (JSON) in row-major order
http://www.bom.gov.au/fwo/IDD60801/IDD60801.94100.json

Data quality

Most of these data are generated automatically and are frequently updated. Quality checks on data are not normally performed. It is possible for incorrect values to appear. Refer to information at About Latest Weather Observations and please check the disclaimer before using these data.